Time;durP1;ratioP1;P1;durP2;ratioP2;P2;SDS_P1;SDS_P2;PMS_P1;PMS_P2;Temp;Humidity;BMP_temperature;BMP_pressure;BME280_temperature;BME280_humidity;BME280_pressure;Samples;Min_cycle;Max_cycle;Signal;HPM_P1;HPM_P2
2024/02/13 00:00:12;;;;;;;5.07;1.95;;;;;;;6.51;74.04;92360.78;2065331;69;20174;-77
2024/02/13 00:02:41;;;;;;;2.90;1.57;;;;;;;6.50;74.27;92364.13;2065195;69;20180;-77
2024/02/13 00:05:08;;;;;;;2.85;1.60;;;;;;;6.39;74.18;92356.38;2065186;69;20269;-76
2024/02/13 00:07:35;;;;;;;3.42;2.20;;;;;;;6.36;74.59;92356.22;2065131;69;20227;-76
2024/02/13 00:10:01;;;;;;;8.45;4.10;;;;;;;6.35;75.23;92373.59;2065162;69;20145;-75
2024/02/13 00:12:26;;;;;;;7.10;3.72;;;;;;;6.31;75.22;92374.03;2065161;69;20167;-78
2024/02/13 00:14:52;;;;;;;3.92;2.50;;;;;;;6.33;74.60;92376.25;2065137;69;20137;-76
2024/02/13 00:17:17;;;;;;;2.20;1.48;;;;;;;6.32;74.90;92383.16;2065234;69;20144;-77
2024/02/13 00:19:43;;;;;;;1.55;1.15;;;;;;;6.18;74.72;92388.47;2065190;69;20159;-78
2024/02/13 00:22:12;;;;;;;1.80;1.48;;;;;;;6.14;74.78;92398.63;2065096;69;20151;-78
2024/02/13 00:24:39;;;;;;;3.95;1.95;;;;;;;6.16;75.12;92398.78;2064639;69;20581;-76
2024/02/13 00:27:05;;;;;;;6.35;2.50;;;;;;;6.04;75.11;92393.06;2065434;69;20145;-76
2024/02/13 00:29:30;;;;;;;3.85;1.90;;;;;;;6.04;75.23;92404.97;2067471;69;20149;-76
2024/02/13 00:31:56;;;;;;;1.40;1.10;;;;;;;6.04;74.80;92410.56;2064940;69;20629;-77
2024/02/13 00:34:22;;;;;;;2.97;0.80;;;;;;;6.14;73.84;92409.81;2065118;69;20149;-77
2024/02/13 00:36:50;;;;;;;2.22;0.80;;;;;;;6.10;74.75;92419.38;2065175;69;20152;-78
2024/02/13 00:39:17;;;;;;;1.45;0.90;;;;;;;5.97;74.25;92417.03;2065314;69;20210;-77
2024/02/13 00:41:43;;;;;;;0.90;0.70;;;;;;;6.01;74.68;92416.59;2065249;69;20152;-77
2024/02/13 00:47:56;;;;;;;1.40;0.90;;;;;;;5.91;75.82;92424.97;2065362;69;20611;-75
2024/02/13 00:50:23;;;;;;;2.30;1.00;;;;;;;5.99;74.71;92424.81;2064844;69;20145;-74
2024/02/13 00:52:50;;;;;;;3.13;2.10;;;;;;;5.92;74.85;92425.72;2064755;69;20145;-74
2024/02/13 00:55:16;;;;;;;6.03;2.80;;;;;;;5.64;76.44;92429.94;2065193;69;20176;-75
2024/02/13 00:57:43;;;;;;;4.15;2.35;;;;;;;5.55;77.86;92428.59;2065321;69;20145;-77
2024/02/13 01:00:11;;;;;;;3.90;2.70;;;;;;;5.70;77.22;92424.78;2064794;69;20144;-77
2024/02/13 01:02:37;;;;;;;4.03;2.38;;;;;;;5.57;77.28;92426.66;2065108;69;20201;-77
2024/02/13 01:05:03;;;;;;;4.60;2.50;;;;;;;5.66;76.50;92428.00;2064772;69;20145;-77
2024/02/13 01:07:30;;;;;;;4.53;2.40;;;;;;;5.75;76.38;92427.28;2064849;69;20579;-77
2024/02/13 01:09:57;;;;;;;4.05;2.13;;;;;;;5.78;75.78;92425.38;2065253;69;20210;-77
2024/02/13 01:12:22;;;;;;;3.45;2.10;;;;;;;5.83;76.02;92433.47;2064838;69;20140;-77
2024/02/13 01:18:35;;;;;;;2.22;1.63;;;;;;;5.84;75.73;92445.38;2064859;69;20190;-77
2024/02/13 01:21:02;;;;;;;2.72;2.10;;;;;;;5.75;75.74;92448.91;2064667;69;20133;-78
2024/02/13 01:23:28;;;;;;;3.92;2.38;;;;;;;5.76;76.27;92459.47;2065145;69;20604;-76
2024/02/13 01:25:54;;;;;;;3.10;1.85;;;;;;;5.71;76.69;92462.56;2065062;69;20183;-77
2024/02/13 01:28:20;;;;;;;3.55;2.13;;;;;;;5.78;77.14;92465.22;2065027;69;20151;-77
2024/02/13 01:30:46;;;;;;;3.17;1.80;;;;;;;5.75;76.36;92469.19;2064880;69;20147;-77
2024/02/13 01:33:12;;;;;;;3.08;2.17;;;;;;;5.42;77.76;92476.47;2065138;69;20596;-77
2024/02/13 01:35:42;;;;;;;4.05;2.13;;;;;;;5.22;78.48;92476.41;2065157;69;20144;-76
2024/02/13 01:38:09;;;;;;;4.25;2.15;;;;;;;5.62;77.47;92486.34;2065091;69;20152;-76
2024/02/13 01:40:36;;;;;;;3.38;2.10;;;;;;;5.69;76.73;92484.75;2064974;69;20589;-76
2024/02/13 01:43:02;;;;;;;4.75;2.17;;;;;;;5.71;76.58;92484.91;2064920;69;20145;-76
2024/02/13 01:45:28;;;;;;;5.22;2.28;;;;;;;5.66;77.03;92497.09;2065035;69;20242;-78
2024/02/13 01:47:55;;;;;;;3.70;2.20;;;;;;;5.65;76.50;92504.75;2064865;69;20188;-76
2024/02/13 01:50:21;;;;;;;3.72;2.10;;;;;;;5.72;76.75;92501.06;2065045;69;20137;-77
2024/02/13 01:52:50;;;;;;;4.93;2.65;;;;;;;5.68;77.06;92503.56;2065147;69;20187;-77
2024/02/13 01:55:19;;;;;;;5.65;2.55;;;;;;;5.68;76.68;92502.81;2064653;69;20193;-76
2024/02/13 01:57:46;;;;;;;3.05;2.20;;;;;;;5.83;75.64;92505.38;2064597;69;20140;-77
2024/02/13 02:00:15;;;;;;;4.95;2.03;;;;;;;5.81;76.63;92508.72;2065043;69;20155;-76
2024/02/13 02:02:44;;;;;;;3.20;1.60;;;;;;;5.83;76.30;92510.97;2065012;69;20148;-76
2024/02/13 02:05:16;;;;;;;2.10;1.40;;;;;;;5.84;76.01;92521.53;2064247;69;20215;-76
2024/02/13 02:07:42;;;;;;;3.55;2.30;;;;;;;5.54;77.52;92520.00;2064296;69;20153;-75
2024/02/13 02:10:08;;;;;;;5.90;2.80;;;;;;;5.64;77.08;92517.22;2064825;69;20172;-76
2024/02/13 02:12:41;;;;;;;3.58;2.30;;;;;;;5.72;76.42;92522.69;2067034;69;20244;-76
2024/02/13 02:15:09;;;;;;;2.90;1.90;;;;;;;5.61;77.52;92537.94;2064833;69;20148;-76
2024/02/13 02:17:35;;;;;;;2.88;2.00;;;;;;;5.68;77.22;92522.38;2064215;69;20137;-76
2024/02/13 02:20:00;;;;;;;5.40;2.00;;;;;;;5.72;76.90;92526.22;2064185;69;20143;-75
2024/02/13 02:22:27;;;;;;;2.25;1.75;;;;;;;5.77;76.31;92530.81;2064877;69;20137;-76
2024/02/13 02:24:55;;;;;;;2.72;1.77;;;;;;;5.76;76.32;92536.94;2064919;69;20152;-77
2024/02/13 02:27:21;;;;;;;4.43;2.10;;;;;;;5.74;76.31;92539.59;2064986;69;20145;-77
2024/02/13 02:29:47;;;;;;;4.45;2.20;;;;;;;5.70;76.85;92536.50;2065055;69;20145;-77
2024/02/13 02:32:12;;;;;;;3.88;2.10;;;;;;;5.52;77.31;92527.47;2065103;69;20207;-76
2024/02/13 02:34:39;;;;;;;3.88;2.17;;;;;;;5.63;77.25;92540.16;2064928;69;20141;-77
2024/02/13 02:37:06;;;;;;;4.45;2.10;;;;;;;5.71;76.71;92549.88;2064999;69;20168;-77
2024/02/13 02:43:19;;;;;;;5.50;2.00;;;;;;;5.77;76.24;92552.38;2065347;69;20128;-76
2024/02/13 02:45:45;;;;;;;2.85;1.85;;;;;;;5.82;76.65;92562.56;2065489;69;20180;-76
2024/02/13 02:48:13;;;;;;;4.97;1.67;;;;;;;5.87;75.83;92564.34;2064911;69;20560;-76
2024/02/13 02:50:38;;;;;;;4.82;1.90;;;;;;;5.77;76.49;92567.13;2065426;69;20807;-77
2024/02/13 02:53:04;;;;;;;4.03;1.95;;;;;;;5.25;78.71;92572.16;2065369;69;20226;-76
2024/02/13 02:55:30;;;;;;;2.92;1.60;;;;;;;5.54;77.52;92584.22;2065559;69;20516;-79
2024/02/13 02:57:56;;;;;;;3.22;1.90;;;;;;;5.45;77.64;92582.13;2065400;69;20160;-77
2024/02/13 03:00:22;;;;;;;3.20;1.85;;;;;;;5.34;77.63;92586.16;2065656;69;20581;-77
2024/02/13 03:02:49;;;;;;;4.03;2.20;;;;;;;5.19;78.38;92582.88;2065157;69;20148;-76
2024/02/13 03:05:16;;;;;;;3.33;2.00;;;;;;;5.37;78.33;92591.94;2064844;69;20156;-74
2024/02/13 03:07:42;;;;;;;4.03;2.20;;;;;;;5.38;78.04;92604.56;2065526;69;20148;-75
2024/02/13 03:10:10;;;;;;;3.40;2.20;;;;;;;5.44;77.40;92611.34;2065660;69;20133;-77
2024/02/13 03:12:36;;;;;;;3.35;2.20;;;;;;;5.34;77.89;92618.94;2064991;69;20177;-77
2024/02/13 03:15:03;;;;;;;3.58;1.83;;;;;;;5.23;77.93;92619.47;2065559;69;20685;-75
2024/02/13 03:17:29;;;;;;;3.80;1.90;;;;;;;5.25;77.72;92628.72;2064545;69;20184;-75
2024/02/13 03:19:57;;;;;;;2.75;1.70;;;;;;;5.37;77.56;92631.00;2065292;69;20588;-75
2024/02/13 03:22:25;;;;;;;2.50;1.73;;;;;;;5.35;77.26;92639.94;2065202;69;20156;-77
2024/02/13 03:24:51;;;;;;;3.97;1.80;;;;;;;5.58;76.23;92636.84;2065055;69;20149;-77
2024/02/13 03:27:16;;;;;;;3.40;2.15;;;;;;;5.69;75.57;92639.09;2065122;69;20934;-76
2024/02/13 03:29:42;;;;;;;1.98;1.30;;;;;;;5.73;76.10;92645.00;2064807;69;20137;-77
2024/02/13 03:32:08;;;;;;;2.05;1.05;;;;;;;5.58;75.23;92651.53;2064825;69;20161;-78
2024/02/13 03:34:33;;;;;;;2.65;1.17;;;;;;;5.55;75.44;92661.09;2065165;69;20164;-77
2024/02/13 03:37:03;;;;;;;1.80;1.35;;;;;;;5.63;75.08;92649.06;2065409;69;20184;-77
2024/02/13 03:39:29;;;;;;;2.15;1.35;;;;;;;5.72;74.74;92660.28;2065447;69;20217;-78
2024/02/13 03:41:56;;;;;;;1.70;1.30;;;;;;;5.62;75.49;92639.94;2064999;69;20400;-77
2024/02/13 03:44:22;;;;;;;2.45;1.40;;;;;;;5.66;75.52;92640.25;2065254;69;20315;-77
2024/02/13 03:46:49;;;;;;;2.13;1.20;;;;;;;5.70;75.83;92662.19;2064729;69;20141;-77
2024/02/13 03:49:15;;;;;;;1.63;1.20;;;;;;;5.74;75.06;92662.50;2065381;69;20153;-78
2024/02/13 03:51:41;;;;;;;1.75;1.25;;;;;;;5.74;75.46;92665.31;2065612;69;20287;-76
2024/02/13 03:54:08;;;;;;;2.75;1.38;;;;;;;5.75;75.38;92658.38;2065386;69;20240;-77
2024/02/13 03:56:37;;;;;;;1.73;1.38;;;;;;;5.66;75.23;92662.59;2065429;69;20176;-77
2024/02/13 03:59:05;;;;;;;1.60;1.15;;;;;;;5.65;75.48;92669.50;2065354;69;20173;-77
2024/02/13 04:01:31;;;;;;;1.50;1.10;;;;;;;5.62;75.29;92653.91;2065365;69;20557;-75
2024/02/13 04:04:00;;;;;;;1.00;0.73;;;;;;;5.70;75.23;92660.13;2065270;69;20149;-78
2024/02/13 04:06:26;;;;;;;1.67;0.70;;;;;;;5.59;75.36;92664.19;2065379;69;20145;-76
2024/02/13 04:08:52;;;;;;;2.95;1.38;;;;;;;5.52;76.53;92676.19;2064838;69;20532;-77
2024/02/13 04:11:18;;;;;;;4.35;1.50;;;;;;;5.45;75.43;92671.47;2066178;69;20152;-77
2024/02/13 04:13:44;;;;;;;2.75;1.40;;;;;;;5.50;76.19;92676.06;2066231;69;20149;-77
2024/02/13 04:16:10;;;;;;;2.65;1.50;;;;;;;5.49;75.97;92679.41;2065538;69;20145;-77
2024/02/13 04:18:37;;;;;;;2.90;1.48;;;;;;;5.55;76.00;92683.44;2064843;69;20178;-76
2024/02/13 04:21:04;;;;;;;3.10;1.90;;;;;;;5.51;76.13;92677.53;2065428;69;20125;-77
2024/02/13 04:23:30;;;;;;;2.38;1.42;;;;;;;5.56;75.83;92695.34;2065372;69;20330;-77
2024/02/13 04:25:56;;;;;;;5.32;2.38;;;;;;;5.63;75.20;92691.69;2065249;69;20164;-77
2024/02/13 04:28:27;;;;;;;4.30;2.75;;;;;;;5.54;75.65;92693.13;2065301;69;20520;-76
2024/02/13 04:30:53;;;;;;;6.63;3.78;;;;;;;5.47;75.46;92699.53;2065290;69;20180;-77
2024/02/13 04:33:19;;;;;;;10.55;6.25;;;;;;;5.04;77.09;92703.75;2064767;69;20148;-77
2024/02/13 04:35:45;;;;;;;7.40;4.55;;;;;;;5.14;77.20;92696.22;2065324;69;20137;-76
2024/02/13 04:38:10;;;;;;;9.20;3.80;;;;;;;5.36;76.46;92705.66;2065064;69;20222;-76
2024/02/13 04:40:36;;;;;;;5.65;3.15;;;;;;;5.45;75.92;92712.59;2065305;69;20566;-76
2024/02/13 04:43:02;;;;;;;3.83;2.20;;;;;;;5.29;76.38;92707.19;2064773;69;20148;-76
2024/02/13 04:45:28;;;;;;;5.18;2.42;;;;;;;5.14;77.09;92717.81;2064835;69;20160;-75
2024/02/13 04:47:53;;;;;;;3.65;2.15;;;;;;;5.30;75.95;92711.47;2065213;69;20183;-76
2024/02/13 04:50:19;;;;;;;5.05;2.30;;;;;;;5.41;75.65;92724.19;2065406;69;20231;-77
2024/02/13 04:52:46;;;;;;;3.25;2.10;;;;;;;5.43;76.10;92726.41;2065259;69;20145;-77
2024/02/13 04:55:11;;;;;;;3.17;2.10;;;;;;;5.46;75.83;92723.19;2065369;69;20137;-77
2024/02/13 04:57:38;;;;;;;4.22;2.22;;;;;;;5.53;75.69;92732.78;2065114;69;20148;-75
2024/02/13 05:00:18;;;;;;;5.00;2.38;;;;;;;5.45;75.92;92735.69;2065270;69;20153;-76
2024/02/13 05:02:49;;;;;;;3.53;2.10;;;;;;;5.40;76.08;92719.91;2065122;69;20161;-76
2024/02/13 05:08:01;;;;;;;3.42;2.40;;;;;;;5.55;76.18;92732.97;2065282;69;20599;-76
2024/02/13 05:10:26;;;;;;;6.53;4.00;;;;;;;5.59;75.79;92736.81;2065107;69;20206;-77
2024/02/13 05:12:53;;;;;;;5.78;3.83;;;;;;;5.53;75.96;92730.72;2065173;69;20149;-78
2024/02/13 05:15:21;;;;;;;6.97;4.40;;;;;;;5.55;75.91;92733.69;2065332;69;20152;-77
2024/02/13 05:17:48;;;;;;;7.85;4.10;;;;;;;5.55;76.34;92730.91;2064656;69;20613;-77
2024/02/13 05:20:14;;;;;;;4.57;3.15;;;;;;;5.53;76.23;92735.56;2065276;69;20235;-78
2024/02/13 05:22:39;;;;;;;6.28;3.53;;;;;;;5.49;76.16;92735.97;2065332;69;20614;-78
2024/02/13 05:25:07;;;;;;;6.05;4.00;;;;;;;5.55;76.40;92736.50;2064805;69;20544;-77
2024/02/13 05:27:33;;;;;;;9.68;6.82;;;;;;;5.49;76.53;92735.25;2065089;69;20173;-77
2024/02/13 05:30:00;;;;;;;13.95;7.28;;;;;;;5.46;76.10;92742.75;2065305;69;20156;-76
2024/02/13 05:32:26;;;;;;;7.72;6.07;;;;;;;5.47;75.90;92741.41;2065297;69;20141;-77
2024/02/13 05:34:53;;;;;;;5.88;3.78;;;;;;;5.37;75.32;92734.31;2065148;69;20600;-78
2024/02/13 05:37:20;;;;;;;6.20;3.88;;;;;;;5.08;76.22;92734.78;2065223;69;20156;-78
2024/02/13 05:39:50;;;;;;;5.45;3.60;;;;;;;5.07;76.69;92750.06;2065308;69;20149;-78
2024/02/13 05:42:18;;;;;;;6.13;3.00;;;;;;;4.96;77.73;92744.97;2065413;69;20153;-77
2024/02/13 05:44:44;;;;;;;4.82;2.92;;;;;;;4.99;77.17;92746.59;2065282;69;20152;-78
2024/02/13 05:47:10;;;;;;;5.55;2.63;;;;;;;4.97;76.69;92749.25;2065071;69;20153;-78
2024/02/13 05:49:36;;;;;;;5.63;2.67;;;;;;;4.93;76.62;92746.13;2064616;69;20161;-77
2024/02/13 05:52:02;;;;;;;5.40;2.65;;;;;;;4.82;76.19;92742.50;2065271;69;20144;-77
2024/02/13 05:54:28;;;;;;;3.75;2.00;;;;;;;4.71;76.54;92742.22;2065253;69;20144;-78
2024/02/13 05:56:54;;;;;;;2.38;1.10;;;;;;;4.65;75.95;92753.63;2065170;69;20168;-79
2024/02/13 05:59:25;;;;;;;2.05;0.85;;;;;;;4.56;75.53;92754.25;2064833;69;20620;-79
2024/02/13 06:01:54;;;;;;;2.55;1.02;;;;;;;4.42;75.56;92750.28;2065276;69;20149;-77
2024/02/13 06:04:20;;;;;;;2.97;1.20;;;;;;;4.38;75.57;92761.84;2065146;69;20141;-79
2024/02/13 06:06:47;;;;;;;2.00;1.30;;;;;;;4.38;76.18;92755.53;2065176;69;20145;-78
2024/02/13 06:09:20;;;;;;;8.00;1.65;;;;;;;4.37;76.21;92770.78;2065332;69;20581;-77
2024/02/13 06:11:48;;;;;;;6.03;2.13;;;;;;;4.24;76.65;92769.00;2065179;69;20218;-77
2024/02/13 06:14:14;;;;;;;4.70;1.50;;;;;;;4.21;76.19;92762.50;2065097;69;20164;-78
2024/02/13 06:16:39;;;;;;;5.28;1.83;;;;;;;4.29;76.18;92777.13;2065339;69;20601;-82
2024/02/13 06:22:52;;;;;;;2.85;1.35;;;;;;;4.28;75.86;92786.81;2065662;69;20139;-78
2024/02/13 06:25:18;;;;;;;1.35;1.00;;;;;;;4.31;75.76;92788.47;2065665;69;20156;-78
2024/02/13 06:27:45;;;;;;;2.22;1.23;;;;;;;4.29;75.78;92776.41;2065859;69;20576;-78
2024/02/13 06:30:12;;;;;;;10.63;6.10;;;;;;;4.07;76.62;92784.34;2065791;69;20137;-78
2024/02/13 06:32:37;;;;;;;7.32;3.60;;;;;;;4.15;76.78;92791.91;2065705;69;20675;-78
2024/02/13 06:35:03;;;;;;;9.02;4.40;;;;;;;4.37;76.36;92791.03;2065280;69;20137;-78
2024/02/13 06:37:29;;;;;;;14.98;6.47;;;;;;;4.23;76.69;92790.56;2065698;69;20182;-77
2024/02/13 06:39:55;;;;;;;11.45;6.43;;;;;;;4.39;76.24;92801.59;2065823;69;20206;-77
2024/02/13 06:42:20;;;;;;;9.07;5.88;;;;;;;4.47;76.36;92799.50;2065734;69;20240;-78
2024/02/13 06:44:47;;;;;;;9.70;6.15;;;;;;;4.41;75.87;92796.22;2065613;69;20202;-78
2024/02/13 06:47:12;;;;;;;12.63;6.32;;;;;;;4.24;76.78;92796.88;2065077;69;20157;-78
2024/02/13 06:49:38;;;;;;;12.25;7.13;;;;;;;4.50;75.60;92798.38;2065583;69;20141;-77
2024/02/13 06:52:05;;;;;;;12.95;7.72;;;;;;;4.43;76.16;92802.69;2065677;69;20152;-78
2024/02/13 06:54:31;;;;;;;11.02;6.78;;;;;;;4.47;76.04;92808.59;2065782;69;20203;-77
2024/02/13 06:56:57;;;;;;;8.20;5.10;;;;;;;4.56;76.35;92807.25;2065612;69;20149;-76
2024/02/13 06:59:23;;;;;;;6.82;4.20;;;;;;;4.67;75.74;92817.91;2065096;69;20149;-75
2024/02/13 07:01:48;;;;;;;10.70;5.57;;;;;;;4.72;76.37;92811.41;2065440;69;20151;-77
2024/02/13 07:04:14;;;;;;;7.03;5.15;;;;;;;4.80;75.95;92822.47;2064846;69;20156;-76
2024/02/13 07:06:40;;;;;;;9.25;5.10;;;;;;;4.79;75.45;92816.16;2065009;69;20149;-78
2024/02/13 07:09:06;;;;;;;5.90;4.05;;;;;;;4.80;75.85;92819.69;2065671;69;20145;-78
2024/02/13 07:11:35;;;;;;;19.83;8.95;;;;;;;4.63;76.17;92822.41;2065556;69;20528;-76
2024/02/13 07:14:02;;;;;;;29.60;10.70;;;;;;;4.49;76.78;92822.72;2065607;69;20157;-76
2024/02/13 07:16:28;;;;;;;28.30;10.82;;;;;;;4.66;76.77;92835.97;2065482;69;20152;-76
2024/02/13 07:18:53;;;;;;;31.05;13.20;;;;;;;4.85;76.28;92829.88;2065452;69;20238;-76
2024/02/13 07:21:19;;;;;;;38.80;14.00;;;;;;;4.83;76.66;92836.03;2065589;69;20133;-76
2024/02/13 07:27:32;;;;;;;18.60;8.02;;;;;;;4.62;77.08;92838.41;2063873;69;20347;-76
2024/02/13 07:29:59;;;;;;;13.55;6.10;;;;;;;4.77;76.77;92845.94;2065607;69;20321;-76
2024/02/13 07:32:24;;;;;;;14.55;7.35;;;;;;;4.81;76.65;92847.03;2065681;69;20167;-76
2024/02/13 07:34:50;;;;;;;25.35;11.13;;;;;;;4.90;76.97;92842.84;2065431;69;20521;-76
2024/02/13 07:37:15;;;;;;;30.10;11.77;;;;;;;4.93;76.89;92838.91;2065493;69;20224;-76
2024/02/13 07:39:41;;;;;;;26.98;10.85;;;;;;;5.03;76.59;92841.81;2065559;69;20151;-77
2024/02/13 07:42:07;;;;;;;14.70;6.60;;;;;;;5.15;75.95;92847.66;2065539;69;20145;-77
2024/02/13 07:44:33;;;;;;;14.20;6.00;;;;;;;5.27;75.88;92843.81;2065514;69;20148;-77
2024/02/13 07:46:59;;;;;;;16.95;6.80;;;;;;;4.79;76.64;92852.41;2065674;69;20532;-77
2024/02/13 07:49:24;;;;;;;14.70;8.00;;;;;;;4.25;79.68;92857.59;2064943;69;20180;-77
2024/02/13 07:51:53;;;;;;;13.75;7.25;;;;;;;4.24;78.93;92858.91;2065551;69;20145;-77
2024/02/13 07:54:21;;;;;;;11.95;7.10;;;;;;;4.90;78.64;92858.84;2065531;69;20165;-77
2024/02/13 07:56:46;;;;;;;14.25;6.47;;;;;;;4.92;77.91;92854.19;2065059;69;20631;-79
2024/02/13 07:59:14;;;;;;;11.80;6.40;;;;;;;5.42;76.59;92868.06;2065618;69;20153;-77
2024/02/13 08:01:42;;;;;;;14.20;6.57;;;;;;;5.71;75.67;92870.38;2065546;69;20153;-77
2024/02/13 08:04:08;;;;;;;10.18;6.00;;;;;;;5.89;74.65;92865.50;2065451;69;20202;-77
2024/02/13 08:06:37;;;;;;;12.48;6.05;;;;;;;6.16;73.95;92885.16;2065498;69;20331;-77
2024/02/13 08:09:06;;;;;;;12.85;5.95;;;;;;;6.13;73.70;92883.50;2065449;69;20147;-77
2024/02/13 08:11:33;;;;;;;10.30;5.57;;;;;;;6.47;72.56;92888.28;2065648;69;20655;-78
2024/02/13 08:13:59;;;;;;;10.55;5.65;;;;;;;6.52;72.97;92896.41;2065489;69;20176;-77
2024/02/13 08:16:24;;;;;;;10.20;5.43;;;;;;;6.51;72.36;92888.63;2065445;69;20775;-76
2024/02/13 08:18:50;;;;;;;8.85;5.07;;;;;;;6.80;70.22;92905.56;2065373;69;20176;-76
2024/02/13 08:21:17;;;;;;;8.07;4.70;;;;;;;5.78;72.07;92903.81;2065581;69;20137;-76
2024/02/13 08:23:42;;;;;;;9.43;4.85;;;;;;;6.13;71.86;92903.06;2065639;69;20141;-76
2024/02/13 08:26:08;;;;;;;7.28;4.20;;;;;;;6.30;72.12;92903.78;2065416;69;20514;-77
2024/02/13 08:28:33;;;;;;;7.93;4.50;;;;;;;5.92;72.53;92897.91;2065596;69;20149;-75
2024/02/13 08:30:59;;;;;;;8.07;4.60;;;;;;;6.17;72.93;92892.22;2065580;69;20519;-75
2024/02/13 08:33:24;;;;;;;9.63;4.75;;;;;;;6.30;72.33;92901.00;2065390;69;20309;-76
2024/02/13 08:35:53;;;;;;;13.15;5.65;;;;;;;6.26;71.61;92900.66;2065513;69;20496;-75
2024/02/13 08:38:20;;;;;;;10.02;5.28;;;;;;;6.90;71.53;92903.53;2065396;69;20253;-76
2024/02/13 08:40:46;;;;;;;10.82;4.63;;;;;;;7.21;70.96;92909.41;2065431;69;20141;-75
2024/02/13 08:43:11;;;;;;;9.82;4.30;;;;;;;7.37;69.19;92907.81;2065463;69;20152;-77
2024/02/13 08:45:37;;;;;;;9.98;4.45;;;;;;;7.57;69.02;92907.88;2065432;69;20149;-74
2024/02/13 08:48:04;;;;;;;9.20;5.00;;;;;;;7.52;68.27;92906.09;2065461;69;20624;-74
2024/02/13 08:50:32;;;;;;;7.88;4.97;;;;;;;7.28;68.82;92905.00;2065564;69;20149;-75
2024/02/13 08:52:58;;;;;;;6.38;4.53;;;;;;;7.44;68.23;92902.69;2065468;69;20148;-75
2024/02/13 08:55:25;;;;;;;11.93;6.05;;;;;;;7.46;68.33;92900.03;2065425;69;20244;-76
2024/02/13 08:57:52;;;;;;;10.40;5.07;;;;;;;7.93;69.31;92895.84;2065407;69;20193;-76
2024/02/13 09:00:19;;;;;;;29.30;15.27;;;;;;;7.59;67.42;92900.34;2065413;69;20160;-76
2024/02/13 09:02:47;;;;;;;13.38;6.35;;;;;;;7.70;68.25;92901.88;2061996;69;20304;-76
2024/02/13 09:05:14;;;;;;;10.88;5.00;;;;;;;7.98;67.66;92899.69;2065257;69;20166;-76
2024/02/13 09:07:41;;;;;;;5.45;3.55;;;;;;;7.85;67.12;92900.84;2065200;69;20148;-76
2024/02/13 09:10:11;;;;;;;15.65;4.13;;;;;;;7.94;67.13;92888.16;2065485;69;20185;-76
2024/02/13 09:12:38;;;;;;;7.47;4.25;;;;;;;7.76;66.43;92893.16;2064864;69;20203;-75
2024/02/13 09:15:11;;;;;;;9.52;4.20;;;;;;;7.82;66.46;92905.56;2065362;69;20153;-76
2024/02/13 09:17:46;;;;;;;6.97;3.70;;;;;;;8.39;67.28;92906.19;2065332;69;20148;-75
2024/02/13 09:20:14;;;;;;;8.45;4.82;;;;;;;8.76;68.28;92901.09;2065347;69;20632;-75
2024/02/13 09:22:44;;;;;;;12.32;6.20;;;;;;;9.31;68.51;92904.91;2065299;69;20149;-75
2024/02/13 09:25:14;;;;;;;11.52;5.35;;;;;;;9.76;66.25;92907.16;2065473;69;20153;-75
2024/02/13 09:27:49;;;;;;;8.07;3.97;;;;;;;9.80;65.21;92908.16;2065347;69;20153;-76
2024/02/13 09:30:17;;;;;;;7.53;3.75;;;;;;;9.85;63.76;92907.13;2065328;69;20163;-75
2024/02/13 09:32:46;;;;;;;6.85;3.70;;;;;;;10.13;62.46;92913.16;2065254;69;20574;-77
2024/02/13 09:35:13;;;;;;;5.25;3.28;;;;;;;9.79;62.02;92903.16;2064811;69;20235;-76
2024/02/13 09:37:42;;;;;;;5.13;3.30;;;;;;;10.06;60.38;92903.56;2065428;69;20236;-76
2024/02/13 09:40:15;;;;;;;5.80;3.40;;;;;;;10.80;60.84;92911.84;2065346;69;20176;-76
2024/02/13 09:42:42;;;;;;;5.00;3.10;;;;;;;11.19;60.16;92905.81;2065361;69;20152;-76
2024/02/13 09:45:10;;;;;;;6.95;3.20;;;;;;;11.78;58.88;92911.47;2065435;69;20235;-77
2024/02/13 09:47:38;;;;;;;6.65;3.13;;;;;;;11.54;56.75;92916.34;2065184;69;20173;-75
2024/02/13 09:50:14;;;;;;;4.88;2.65;;;;;;;11.59;55.95;92907.56;2065298;69;20141;-75
2024/02/13 09:52:57;;;;;;;5.50;3.10;;;;;;;11.68;54.89;92917.22;2065317;69;20219;-76
2024/02/13 09:55:25;;;;;;;5.35;3.13;;;;;;;11.65;56.05;92912.81;2065453;69;20228;-75
2024/02/13 09:57:51;;;;;;;5.15;3.03;;;;;;;12.15;53.57;92914.38;2065385;69;20592;-77
2024/02/13 10:00:20;;;;;;;3.47;2.10;;;;;;;12.17;51.71;92920.13;2065290;69;20153;-76
2024/02/13 10:02:50;;;;;;;3.60;2.28;;;;;;;12.68;51.90;92912.47;2065135;69;20140;-77
2024/02/13 10:05:16;;;;;;;5.00;2.20;;;;;;;13.48;52.01;92906.28;2064722;69;20145;-76
2024/02/13 10:07:43;;;;;;;2.30;1.15;;;;;;;13.30;49.21;92910.22;2065299;69;20230;-76
2024/02/13 10:10:13;;;;;;;1.77;1.17;;;;;;;13.17;48.39;92908.78;2065276;69;20163;-75
2024/02/13 10:12:53;;;;;;;3.42;2.45;;;;;;;12.36;50.86;92913.44;2065286;69;20568;-74
2024/02/13 10:15:19;;;;;;;4.50;2.15;;;;;;;14.01;50.63;92907.56;2065246;69;20149;-74
2024/02/13 10:17:45;;;;;;;4.20;1.70;;;;;;;13.63;47.58;92901.38;2065240;69;20204;-76
2024/02/13 10:20:14;;;;;;;1.80;1.38;;;;;;;13.74;46.66;92906.19;2065246;69;20176;-75
2024/02/13 10:22:45;;;;;;;3.13;2.03;;;;;;;14.35;46.43;92909.31;2065251;69;20132;-76
2024/02/13 10:25:11;;;;;;;2.63;1.40;;;;;;;14.69;46.25;92901.06;2065053;69;20181;-78
2024/02/13 10:27:37;;;;;;;2.25;1.20;;;;;;;15.61;45.08;92900.41;2065019;69;20160;-76
2024/02/13 10:30:06;;;;;;;4.05;1.40;;;;;;;16.05;43.23;92912.34;2065233;69;20516;-76
2024/02/13 10:32:37;;;;;;;3.10;1.83;;;;;;;15.45;45.27;92906.09;2065137;69;20180;-77
2024/02/13 10:35:06;;;;;;;4.30;2.20;;;;;;;15.81;44.84;92909.16;2065374;69;20662;-75
2024/02/13 10:37:31;;;;;;;4.30;2.70;;;;;;;15.31;43.54;92910.38;2065323;69;20144;-77
2024/02/13 10:39:58;;;;;;;3.20;1.88;;;;;;;14.89;43.85;92910.56;2065209;69;20152;-77
2024/02/13 10:42:30;;;;;;;13.60;7.40;;;;;;;15.63;44.16;92911.16;2065103;69;20517;-76
2024/02/13 10:45:03;;;;;;;9.18;5.03;;;;;;;16.29;43.29;92903.41;2064552;69;20497;-78
2024/02/13 10:47:30;;;;;;;;;;;;;;;17.62;41.19;92901.69;2065297;69;20589;-77
2024/02/13 10:49:59;;;;;;;3.08;2.08;;;;;;;19.14;39.44;92891.34;2065179;69;20084;-76
2024/02/13 10:52:26;;;;;;;10.38;5.95;;;;;;;18.21;38.67;92906.72;2064648;69;20172;-77
2024/02/13 10:54:54;;;;;;;5.72;3.30;;;;;;;18.86;37.98;92905.41;2064697;69;20223;-77
2024/02/13 10:57:22;;;;;;;4.88;2.78;;;;;;;19.94;36.32;92902.38;2065157;69;20690;-78
2024/02/13 10:59:50;;;;;;;2.10;1.55;;;;;;;18.44;37.14;92905.41;2064610;69;20137;-80
2024/02/13 11:02:19;;;;;;;2.00;1.27;;;;;;;20.05;35.93;92907.72;2065147;69;20164;-79
2024/02/13 11:04:46;;;;;;;2.15;1.20;;;;;;;20.16;35.67;92908.75;2065452;69;20504;-82
2024/02/13 11:07:17;;;;;;;4.13;1.45;;;;;;;18.89;37.15;92903.38;2065681;69;20152;-80
2024/02/13 11:09:43;;;;;;;3.05;1.75;;;;;;;21.31;35.30;92912.53;2065664;69;20228;-78
2024/02/13 11:12:09;;;;;;;3.92;1.60;;;;;;;22.57;34.37;92911.69;2065640;69;20161;-79
2024/02/13 11:14:38;;;;;;;2.08;1.50;;;;;;;23.12;33.27;92912.75;2065588;69;20651;-79
2024/02/13 11:17:09;;;;;;;2.13;1.30;;;;;;;20.35;33.34;92909.25;2065085;69;20243;-78
2024/02/13 11:19:43;;;;;;;1.85;1.27;;;;;;;23.02;31.73;92898.22;2065580;69;20661;-75
2024/02/13 11:22:09;;;;;;;3.00;1.83;;;;;;;23.73;30.85;92910.16;2065055;69;20524;-76
2024/02/13 11:24:49;;;;;;;4.13;1.45;;;;;;;23.62;30.72;92905.66;2065473;69;20597;-75
2024/02/13 11:27:23;;;;;;;1.80;1.08;;;;;;;25.50;29.69;92909.41;2064128;69;20149;-76
2024/02/13 11:29:59;;;;;;;1.20;0.80;;;;;;;25.87;28.02;92912.59;2065469;69;20223;-75
2024/02/13 11:32:29;;;;;;;3.85;1.00;;;;;;;25.95;28.19;92900.41;2065209;69;20156;-76
2024/02/13 11:34:59;;;;;;;0.82;0.63;;;;;;;27.79;26.31;92905.34;2065241;69;20159;-76
2024/02/13 11:37:30;;;;;;;1.38;0.88;;;;;;;28.33;26.03;92903.81;2065286;69;20698;-77
2024/02/13 11:39:59;;;;;;;1.35;0.70;;;;;;;29.33;23.73;92905.63;2065489;69;20160;-78
2024/02/13 11:42:33;;;;;;;0.77;0.60;;;;;;;30.22;23.39;92904.22;2065528;69;20721;-79
2024/02/13 11:45:00;;;;;;;0.73;0.50;;;;;;;32.00;23.21;92899.75;2065548;69;20141;-77
2024/02/13 11:51:14;;;;;;;1.30;0.40;;;;;;;31.41;21.09;92902.84;2065204;69;20128;-78
2024/02/13 11:53:40;;;;;;;2.08;0.50;;;;;;;30.69;22.24;92903.69;2065215;69;20232;-77
2024/02/13 11:56:07;;;;;;;0.60;0.40;;;;;;;31.54;21.91;92907.00;2065377;69;20156;-78
2024/02/13 11:58:34;;;;;;;0.65;0.30;;;;;;;33.04;19.73;92908.81;2065260;69;20219;-80
2024/02/13 12:01:01;;;;;;;2.33;0.40;;;;;;;33.30;19.78;92898.75;2065498;69;20228;-79
2024/02/13 12:03:32;;;;;;;0.60;0.30;;;;;;;32.02;20.47;92884.44;2065309;69;20153;-79